createdAt,value
2023-04-16T00:02:30.329Z,98350.11
2023-04-16T00:05:22.495Z,98345.65
2023-04-16T00:08:14.632Z,98353.54
2023-04-16T00:11:06.731Z,98349.36
2023-04-16T00:13:58.943Z,98348.48
2023-04-16T00:16:50.909Z,98348.49
2023-04-16T00:19:42.944Z,98347.80
2023-04-16T00:22:34.903Z,98343.98
2023-04-16T00:25:26.763Z,98345.07
2023-04-16T00:28:18.717Z,98348.40
2023-04-16T00:31:13.954Z,98347.71
2023-04-16T00:34:06.332Z,98346.90
2023-04-16T00:36:58.362Z,98347.09
2023-04-16T00:39:51.073Z,98349.75
2023-04-16T00:42:43.063Z,98355.33
2023-04-16T00:45:35.151Z,98353.23
2023-04-16T00:48:28.318Z,98352.92
2023-04-16T00:51:21.340Z,98353.98
2023-04-16T00:54:13.347Z,98354.19
2023-04-16T00:56:47.928Z,98357.52
2023-04-16T00:59:28.767Z,98357.56
2023-04-16T01:02:20.875Z,98357.07
2023-04-16T01:05:13.262Z,98356.77
2023-04-16T01:08:05.374Z,98353.30
2023-04-16T01:10:57.422Z,98362.02
2023-04-16T01:13:49.394Z,98366.75
2023-04-16T01:16:41.394Z,98368.88
2023-04-16T01:19:36.246Z,98373.38
2023-04-16T01:22:28.409Z,98373.36
2023-04-16T01:25:20.397Z,98369.04
2023-04-16T01:28:12.428Z,98373.57
2023-04-16T01:31:04.619Z,98370.83
2023-04-16T01:33:56.513Z,98372.25
2023-04-16T01:36:48.517Z,98369.88
2023-04-16T01:39:40.484Z,98371.14
2023-04-16T01:42:33.078Z,98369.23
2023-04-16T01:45:25.213Z,98373.06
2023-04-16T01:48:00.574Z,98382.14
2023-04-16T01:50:52.641Z,98381.81
2023-04-16T01:53:38.134Z,98388.09
2023-04-16T01:56:30.154Z,98386.36
2023-04-16T01:59:22.101Z,98393.67
2023-04-16T02:02:16.361Z,98398.91
2023-04-16T02:05:09.200Z,98400.48
2023-04-16T02:08:01.284Z,98398.75
2023-04-16T02:10:53.534Z,98400.32
2023-04-16T02:13:45.527Z,98407.10
2023-04-16T02:16:37.535Z,98409.17
2023-04-16T02:19:29.763Z,98411.06
2023-04-16T02:22:21.722Z,98408.23
2023-04-16T02:25:14.154Z,98411.33
2023-04-16T02:28:06.313Z,98409.42
2023-04-16T02:30:59.104Z,98407.85
2023-04-16T02:33:51.138Z,98409.73
2023-04-16T02:36:43.122Z,98411.66
2023-04-16T02:39:35.065Z,98414.98
2023-04-16T02:42:27.204Z,98418.13
2023-04-16T02:45:19.349Z,98420.03
2023-04-16T02:48:09.661Z,98418.48
2023-04-16T02:51:01.924Z,98424.91
2023-04-16T02:53:53.893Z,98424.92
2023-04-16T02:56:45.851Z,98428.41
2023-04-16T02:59:37.986Z,98435.73
2023-04-16T03:02:30.125Z,98437.31
2023-04-16T03:05:05.563Z,98436.82
2023-04-16T03:07:57.524Z,98437.54
2023-04-16T03:10:49.484Z,98438.75
2023-04-16T03:13:41.392Z,98441.52
2023-04-16T03:16:33.369Z,98442.02
2023-04-16T03:19:25.700Z,98449.64
2023-04-16T03:22:02.868Z,98452.21
2023-04-16T03:24:54.804Z,98457.43
2023-04-16T03:27:46.836Z,98461.90
2023-04-16T03:30:38.963Z,98466.39
2023-04-16T03:33:31.183Z,98468.98
2023-04-16T03:36:23.844Z,98468.26
2023-04-16T03:39:16.175Z,98479.54
2023-04-16T03:41:51.173Z,98477.94
2023-04-16T03:44:43.199Z,98482.09
2023-04-16T03:47:35.190Z,98478.77
2023-04-16T03:50:27.230Z,98481.86
2023-04-16T03:53:19.365Z,98487.20
2023-04-16T03:56:11.499Z,98490.80
2023-04-16T03:58:46.422Z,98499.31
2023-04-16T04:01:38.486Z,98497.53
2023-04-16T04:04:16.310Z,98500.48
2023-04-16T04:07:08.461Z,98502.52
2023-04-16T04:09:40.224Z,98505.10
2023-04-16T04:12:33.334Z,98508.22
2023-04-16T04:15:12.681Z,98505.39
2023-04-16T04:18:04.646Z,98507.98
2023-04-16T04:20:57.144Z,98510.19
2023-04-16T04:23:31.749Z,98516.26
2023-04-16T04:26:23.857Z,98522.66
2023-04-16T04:29:15.927Z,98529.46
2023-04-16T04:32:08.156Z,98528.39
2023-04-16T04:35:01.143Z,98528.34
2023-04-16T04:37:53.221Z,98532.14
2023-04-16T04:40:45.278Z,98537.30
2023-04-16T04:43:37.316Z,98539.33
2023-04-16T04:46:11.872Z,98543.11
2023-04-16T04:49:03.844Z,98544.45
2023-04-16T04:51:56.020Z,98547.02
2023-04-16T04:54:47.944Z,98545.10
2023-04-16T04:57:39.901Z,98544.69
2023-04-16T05:00:27.881Z,98553.00
2023-04-16T05:03:22.764Z,98555.77
2023-04-16T05:06:14.901Z,98560.60
2023-04-16T05:09:11.462Z,98563.75
2023-04-16T05:12:04.670Z,98570.06
2023-04-16T05:14:56.616Z,98576.33
2023-04-16T05:17:48.667Z,98582.79
2023-04-16T05:20:40.783Z,98587.02
2023-04-16T05:23:32.816Z,98585.49
2023-04-16T05:26:24.800Z,98592.65
2023-04-16T05:29:16.776Z,98591.93
2023-04-16T05:31:51.402Z,98592.24
2023-04-16T05:34:43.384Z,98588.25
2023-04-16T05:37:35.428Z,98588.73
2023-04-16T05:40:13.254Z,98589.77
2023-04-16T05:43:05.269Z,98590.80
2023-04-16T05:45:42.099Z,98592.30
2023-04-16T05:48:34.152Z,98596.61
2023-04-16T05:51:27.214Z,98601.11
2023-04-16T05:54:19.239Z,98612.74
2023-04-16T05:57:11.687Z,98616.00
2023-04-16T06:00:03.924Z,98617.20
2023-04-16T06:02:56.058Z,98621.84
2023-04-16T06:05:48.233Z,98623.30
2023-04-16T06:08:40.255Z,98625.60
2023-04-16T06:11:34.036Z,98621.79
2023-04-16T06:14:10.429Z,98625.14
2023-04-16T06:16:47.433Z,98631.52
2023-04-16T06:19:39.389Z,98633.39
2023-04-16T06:22:31.607Z,98638.09
2023-04-16T06:25:23.639Z,98634.67
2023-04-16T06:28:15.665Z,98635.22
2023-04-16T06:31:07.987Z,98640.83
2023-04-16T06:33:59.972Z,98644.12
2023-04-16T06:36:52.120Z,98644.10
2023-04-16T06:39:44.192Z,98644.99
2023-04-16T06:42:36.315Z,98649.88
2023-04-16T06:45:28.393Z,98652.29
2023-04-16T06:48:20.403Z,98652.04
2023-04-16T06:51:13.093Z,98646.20
2023-04-16T06:54:05.141Z,98640.79
2023-04-16T06:56:57.336Z,98644.29
2023-04-16T06:59:34.624Z,98641.42
2023-04-16T07:02:26.998Z,98638.42
2023-04-16T07:05:19.429Z,98637.50
2023-04-16T07:08:11.907Z,98641.11
2023-04-16T07:11:04.466Z,98644.31
2023-04-16T07:13:57.691Z,98647.70
2023-04-16T07:16:49.769Z,98648.07
2023-04-16T07:19:30.514Z,98645.64
2023-04-16T07:22:05.646Z,98648.11
2023-04-16T07:24:57.646Z,98653.00
2023-04-16T07:27:38.734Z,98658.73
2023-04-16T07:30:34.252Z,98663.73
2023-04-16T07:33:16.774Z,98658.25
2023-04-16T07:35:48.811Z,98662.09
2023-04-16T07:38:41.232Z,98665.13
2023-04-16T07:41:33.424Z,98665.77
2023-04-16T07:44:25.467Z,98663.91
2023-04-16T07:47:17.622Z,98664.77
2023-04-16T07:49:54.938Z,98669.86
2023-04-16T07:52:47.555Z,98669.90
2023-04-16T07:55:39.617Z,98673.10
2023-04-16T07:58:31.870Z,98675.05
2023-04-16T08:01:09.456Z,98678.70
2023-04-16T08:04:01.652Z,98677.27
2023-04-16T08:06:51.464Z,98679.30
2023-04-16T08:09:52.115Z,98687.06
2023-04-16T08:12:44.433Z,98688.99
2023-04-16T08:15:36.504Z,98692.73
2023-04-16T08:18:28.834Z,98696.58
2023-04-16T08:21:08.449Z,98697.16
2023-04-16T08:23:43.044Z,98699.88
2023-04-16T08:26:20.451Z,98697.42
2023-04-16T08:29:12.604Z,98697.17
2023-04-16T08:32:04.771Z,98701.75
2023-04-16T08:34:57.224Z,98700.78
2023-04-16T08:37:49.242Z,98702.10
2023-04-16T08:40:42.869Z,98706.16
2023-04-16T08:43:37.915Z,98708.53
2023-04-16T08:46:13.698Z,98708.54
2023-04-16T08:48:54.937Z,98706.92
2023-04-16T08:51:35.127Z,98705.79
2023-04-16T08:54:38.747Z,98704.27
2023-04-16T08:57:38.273Z,98701.92
2023-04-16T09:00:32.752Z,98702.71
2023-04-16T09:03:25.321Z,98702.52
2023-04-16T09:06:18.243Z,98705.77
2023-04-16T09:09:12.387Z,98707.25
2023-04-16T09:12:05.790Z,98707.23
2023-04-16T09:15:02.723Z,98707.54
2023-04-16T09:17:56.478Z,98707.95
2023-04-16T09:20:48.675Z,98708.27
2023-04-16T09:23:38.419Z,98706.25
2023-04-16T09:26:31.100Z,98705.90
2023-04-16T09:29:37.351Z,98703.81
2023-04-16T09:32:30.464Z,98704.36
2023-04-16T09:35:22.783Z,98701.21
2023-04-16T09:38:01.342Z,98705.99
2023-04-16T09:41:09.440Z,98711.31
2023-04-16T09:44:04.189Z,98718.54
2023-04-16T09:46:46.232Z,98720.98
2023-04-16T09:49:29.207Z,98717.63
2023-04-16T09:52:23.372Z,98717.59
2023-04-16T09:55:15.401Z,98718.38
2023-04-16T09:58:12.317Z,98722.45
2023-04-16T10:01:06.921Z,98715.58
2023-04-16T10:03:59.598Z,98719.20
2023-04-16T10:07:05.948Z,98721.31
2023-04-16T10:09:59.439Z,98718.41
2023-04-16T10:12:51.997Z,98719.73
2023-04-16T10:15:44.329Z,98719.34
2023-04-16T10:18:38.261Z,98715.37
2023-04-16T10:21:33.843Z,98714.09
2023-04-16T10:24:27.352Z,98714.86
2023-04-16T10:27:20.379Z,98714.63
2023-04-16T10:30:15.047Z,98720.89
2023-04-16T10:32:58.286Z,98721.66
2023-04-16T10:36:04.920Z,98721.21
2023-04-16T10:39:01.852Z,98721.13
2023-04-16T10:42:10.090Z,98722.47
2023-04-16T10:45:04.165Z,98720.95
2023-04-16T10:47:58.806Z,98723.73
2023-04-16T10:50:58.723Z,98724.20
2023-04-16T10:53:50.915Z,98727.81
2023-04-16T10:56:45.423Z,98722.35
2023-04-16T10:59:39.766Z,98722.05
2023-04-16T11:02:32.436Z,98722.52
2023-04-16T11:05:46.745Z,98727.23
2023-04-16T11:08:53.459Z,98728.47
2023-04-16T11:11:48.254Z,98732.83
2023-04-16T11:14:20.393Z,98735.66
2023-04-16T11:16:57.712Z,98737.28
2023-04-16T11:19:50.083Z,98738.45
2023-04-16T11:22:46.513Z,98733.70
2023-04-16T11:25:38.361Z,98733.53
2023-04-16T11:28:36.876Z,98735.41
2023-04-16T11:31:29.017Z,98733.02
2023-04-16T11:34:04.135Z,98735.23
2023-04-16T11:36:56.190Z,98733.71
2023-04-16T11:39:55.322Z,98733.53
2023-04-16T11:42:47.397Z,98731.42
2023-04-16T11:45:39.494Z,98730.88
2023-04-16T11:48:51.984Z,98732.21
2023-04-16T11:51:44.869Z,98728.52
2023-04-16T11:54:37.871Z,98727.73
2023-04-16T11:57:32.496Z,98729.49
2023-04-16T12:00:16.436Z,98734.33
2023-04-16T12:02:53.434Z,98731.48
2023-04-16T12:05:45.691Z,98738.68
2023-04-16T12:08:37.686Z,98734.62
2023-04-16T12:11:43.575Z,98736.26
2023-04-16T12:14:35.748Z,98732.30
2023-04-16T12:17:27.872Z,98735.22
2023-04-16T12:20:19.859Z,98733.94
2023-04-16T12:23:13.717Z,98735.05
2023-04-16T12:26:12.162Z,98735.42
2023-04-16T12:29:21.841Z,98731.84
2023-04-16T12:32:24.983Z,98729.26
2023-04-16T12:35:02.305Z,98726.58
2023-04-16T12:37:54.260Z,98725.38
2023-04-16T12:40:29.018Z,98726.67
2023-04-16T12:43:21.930Z,98727.90
2023-04-16T12:46:13.947Z,98731.59
2023-04-16T12:49:06.390Z,98726.05
2023-04-16T12:51:58.416Z,98729.89
2023-04-16T12:54:51.109Z,98730.20
2023-04-16T12:57:28.811Z,98726.35
2023-04-16T13:00:21.561Z,98729.15
2023-04-16T13:03:13.803Z,98729.36
2023-04-16T13:06:06.339Z,98729.18
2023-04-16T13:08:58.814Z,98728.44
2023-04-16T13:11:51.017Z,98725.26
2023-04-16T13:14:44.953Z,98723.15
2023-04-16T13:17:37.173Z,98722.69
2023-04-16T13:20:29.205Z,98723.95
2023-04-16T13:23:21.330Z,98724.23
2023-04-16T13:26:15.434Z,98721.60
2023-04-16T13:29:07.525Z,98720.73
2023-04-16T13:31:59.847Z,98715.85
2023-04-16T13:34:52.201Z,98714.10
2023-04-16T13:37:44.235Z,98712.06
2023-04-16T13:40:36.278Z,98711.55
2023-04-16T13:43:28.294Z,98710.23
2023-04-16T13:46:20.454Z,98712.66
2023-04-16T13:49:12.593Z,98709.41
2023-04-16T13:52:04.704Z,98710.10
2023-04-16T13:54:46.829Z,98707.02
2023-04-16T13:57:38.867Z,98710.07
2023-04-16T14:00:30.988Z,98708.39
2023-04-16T14:03:23.333Z,98705.23
2023-04-16T14:06:18.009Z,98704.85
2023-04-16T14:09:10.900Z,98706.08
2023-04-16T14:12:03.217Z,98704.39
2023-04-16T14:14:55.219Z,98700.58
2023-04-16T14:17:27.199Z,98706.68
2023-04-16T14:20:19.188Z,98705.56
2023-04-16T14:23:12.427Z,98708.03
2023-04-16T14:26:04.478Z,98707.76
2023-04-16T14:28:56.522Z,98705.45
2023-04-16T14:31:48.609Z,98707.36
2023-04-16T14:34:40.689Z,98705.35
2023-04-16T14:37:18.599Z,98704.20
2023-04-16T14:40:12.355Z,98699.44
2023-04-16T14:43:04.427Z,98700.16
2023-04-16T14:45:58.611Z,98699.15
2023-04-16T14:48:50.661Z,98699.48
2023-04-16T14:51:42.907Z,98703.77
2023-04-16T14:54:35.651Z,98703.67
2023-04-16T14:57:36.017Z,98702.84
2023-04-16T15:00:28.521Z,98704.73
2023-04-16T15:03:03.127Z,98707.57
2023-04-16T15:05:56.039Z,98702.48
2023-04-16T15:08:48.048Z,98702.55
2023-04-16T15:11:40.017Z,98705.45
2023-04-16T15:14:22.553Z,98701.51
2023-04-16T15:17:14.732Z,98703.29
2023-04-16T15:20:09.257Z,98703.31
2023-04-16T15:23:01.285Z,98701.76
2023-04-16T15:25:53.162Z,98696.11
2023-04-16T15:28:45.200Z,98702.08
2023-04-16T15:31:37.200Z,98705.68
2023-04-16T15:34:12.368Z,98706.88
2023-04-16T15:37:04.591Z,98712.31
2023-04-16T15:39:56.630Z,98708.06
2023-04-16T15:42:48.731Z,98712.73
2023-04-16T15:45:31.858Z,98712.98
2023-04-16T15:48:24.300Z,98711.75
2023-04-16T15:51:16.506Z,98717.04
2023-04-16T15:54:08.754Z,98713.75
2023-04-16T15:57:00.762Z,98711.83
2023-04-16T16:00:05.986Z,98715.69
2023-04-16T16:02:58.896Z,98715.73
2023-04-16T16:05:36.258Z,98716.48
2023-04-16T16:08:28.936Z,98720.52
2023-04-16T16:11:12.247Z,98719.14
2023-04-16T16:14:04.191Z,98723.88
2023-04-16T16:16:56.301Z,98730.69
2023-04-16T16:19:48.328Z,98731.25
2023-04-16T16:22:37.547Z,98731.83
2023-04-16T16:25:30.277Z,98727.30
2023-04-16T16:28:24.048Z,98735.87
2023-04-16T16:31:07.204Z,98734.80
2023-04-16T16:33:59.282Z,98736.11
2023-04-16T16:36:51.545Z,98738.98
2023-04-16T16:39:43.684Z,98739.33
2023-04-16T16:42:35.731Z,98739.86
2023-04-16T16:45:28.554Z,98740.43
2023-04-16T16:48:20.585Z,98739.48
2023-04-16T16:50:55.292Z,98739.10
2023-04-16T16:53:47.933Z,98741.02
2023-04-16T16:56:39.887Z,98744.96
2023-04-16T16:59:31.901Z,98747.55
2023-04-16T17:02:24.210Z,98746.03
2023-04-16T17:05:16.580Z,98752.65
2023-04-16T17:08:08.722Z,98752.70
2023-04-16T17:11:03.431Z,98750.60
2023-04-16T17:13:55.634Z,98753.83
2023-04-16T17:16:27.495Z,98759.15
2023-04-16T17:19:19.541Z,98763.20
2023-04-16T17:22:11.887Z,98764.86
2023-04-16T17:24:46.607Z,98763.82
2023-04-16T17:27:41.567Z,98765.41
2023-04-16T17:30:34.467Z,98769.66
2023-04-16T17:33:09.325Z,98777.69
2023-04-16T17:36:01.359Z,98780.38
2023-04-16T17:38:53.554Z,98790.38
2023-04-16T17:41:45.731Z,98786.23
2023-04-16T17:44:37.743Z,98790.27
2023-04-16T17:47:29.827Z,98788.41
2023-04-16T17:50:22.102Z,98792.20
2023-04-16T17:53:14.391Z,98796.66
2023-04-16T17:55:57.751Z,98802.21
2023-04-16T17:58:49.688Z,98805.89
2023-04-16T18:01:41.856Z,98809.80
2023-04-16T18:04:34.265Z,98812.70
2023-04-16T18:07:26.474Z,98812.45
2023-04-16T18:10:11.776Z,98815.19
2023-04-16T18:13:03.731Z,98819.34
2023-04-16T18:15:56.062Z,98820.48
2023-04-16T18:18:48.458Z,98831.15
2023-04-16T18:21:40.511Z,98833.23
2023-04-16T18:24:33.334Z,98834.02
2023-04-16T18:27:25.414Z,98836.22
2023-04-16T18:30:23.432Z,98841.05
2023-04-16T18:36:04.892Z,98848.45
2023-04-16T18:38:56.917Z,98848.83
2023-04-16T18:41:52.020Z,98851.84
2023-04-16T18:44:32.593Z,98850.70
2023-04-16T18:47:24.784Z,98856.25
2023-04-16T18:50:17.005Z,98857.20
2023-04-16T18:53:09.013Z,98858.11
2023-04-16T18:56:01.173Z,98861.69
2023-04-16T18:58:53.352Z,98864.73
2023-04-16T19:01:27.930Z,98868.29
2023-04-16T19:04:20.452Z,98867.09
2023-04-16T19:07:12.478Z,98870.06
2023-04-16T19:09:54.839Z,98868.65
2023-04-16T19:12:46.777Z,98870.90
2023-04-16T19:15:38.917Z,98870.70
2023-04-16T19:18:31.100Z,98872.75
2023-04-16T19:21:23.124Z,98871.54
2023-04-16T19:23:59.127Z,98874.15
2023-04-16T19:26:40.036Z,98872.20
2023-04-16T19:29:35.724Z,98873.05
2023-04-16T19:32:27.804Z,98875.48
2023-04-16T19:35:19.987Z,98874.06
2023-04-16T19:38:12.013Z,98878.12
2023-04-16T19:40:51.887Z,98876.52
2023-04-16T19:43:25.861Z,98879.98
2023-04-16T19:46:18.034Z,98880.11
2023-04-16T19:49:10.364Z,98878.73
2023-04-16T19:52:02.616Z,98881.39
2023-04-16T19:54:54.565Z,98879.81
2023-04-16T19:57:29.109Z,98878.73
2023-04-16T20:00:21.603Z,98884.14
2023-04-16T20:03:13.624Z,98881.86
2023-04-16T20:05:51.801Z,98885.66
2023-04-16T20:08:44.538Z,98883.68
2023-04-16T20:11:36.655Z,98888.52
2023-04-16T20:14:28.479Z,98893.02
2023-04-16T20:17:10.077Z,98888.38
2023-04-16T20:20:09.741Z,98888.85
2023-04-16T20:23:01.704Z,98885.97
2023-04-16T20:25:54.063Z,98890.45
2023-04-16T20:28:46.322Z,98889.86
2023-04-16T20:31:38.284Z,98891.34
2023-04-16T20:34:30.365Z,98892.00
2023-04-16T20:37:04.593Z,98895.02
2023-04-16T20:39:56.580Z,98894.43
2023-04-16T20:42:50.866Z,98894.34
2023-04-16T20:45:46.146Z,98889.15
2023-04-16T20:48:38.735Z,98889.45
2023-04-16T20:51:31.545Z,98893.02
2023-04-16T20:54:24.547Z,98895.73
2023-04-16T20:57:16.501Z,98895.14
2023-04-16T21:00:12.067Z,98894.15
2023-04-16T21:03:04.429Z,98892.14
2023-04-16T21:05:50.989Z,98892.05
2023-04-16T21:08:43.002Z,98891.29
2023-04-16T21:11:35.823Z,98893.66
2023-04-16T21:14:27.893Z,98892.51
2023-04-16T21:17:19.903Z,98891.04
2023-04-16T21:20:14.007Z,98888.29
2023-04-16T21:23:06.610Z,98887.30
2023-04-16T21:25:59.101Z,98885.28
2023-04-16T21:28:43.959Z,98885.66
2023-04-16T21:31:36.030Z,98885.73
2023-04-16T21:34:10.349Z,98881.03
2023-04-16T21:36:44.958Z,98879.16
2023-04-16T21:39:36.914Z,98884.29
2023-04-16T21:42:28.990Z,98881.54
2023-04-16T21:45:21.272Z,98887.02
2023-04-16T21:47:56.088Z,98885.68
2023-04-16T21:50:38.009Z,98889.20
2023-04-16T21:53:31.930Z,98886.98
2023-04-16T21:56:20.198Z,98890.02
2023-04-16T21:59:12.246Z,98891.45
2023-04-16T22:02:04.566Z,98894.13
2023-04-16T22:04:56.639Z,98895.77
2023-04-16T22:07:48.650Z,98897.19
2023-04-16T22:10:40.799Z,98895.33
2023-04-16T22:13:22.711Z,98889.98
2023-04-16T22:16:07.505Z,98891.59
2023-04-16T22:18:49.384Z,98893.38
2023-04-16T22:21:41.417Z,98893.63
2023-04-16T22:24:33.517Z,98895.42
2023-04-16T22:27:15.854Z,98901.90
2023-04-16T22:30:10.195Z,98901.08
2023-04-16T22:33:03.705Z,98902.70
2023-04-16T22:35:55.936Z,98900.29
2023-04-16T22:38:38.055Z,98901.20
2023-04-16T22:41:12.154Z,98901.76
2023-04-16T22:43:51.166Z,98901.29
2023-04-16T22:46:45.018Z,98900.27
2023-04-16T22:49:37.028Z,98899.75
2023-04-16T22:52:19.834Z,98895.24
2023-04-16T22:55:12.305Z,98894.59
2023-04-16T22:58:04.295Z,98893.23
2023-04-16T23:00:59.438Z,98896.73
2023-04-16T23:03:51.667Z,98886.61
2023-04-16T23:06:43.704Z,98890.84
2023-04-16T23:09:35.654Z,98885.98
2023-04-16T23:12:27.738Z,98888.08
2023-04-16T23:15:19.914Z,98886.19
2023-04-16T23:18:12.147Z,98883.58
2023-04-16T23:21:04.267Z,98883.27
2023-04-16T23:23:57.103Z,98882.21
2023-04-16T23:26:49.093Z,98879.27
2023-04-16T23:29:41.113Z,98879.64
2023-04-16T23:32:22.632Z,98878.77
2023-04-16T23:35:20.232Z,98880.36
2023-04-16T23:38:12.194Z,98876.02
2023-04-16T23:41:04.212Z,98875.86
2023-04-16T23:43:56.258Z,98871.54
2023-04-16T23:46:48.334Z,98874.84
2023-04-16T23:49:40.471Z,98872.39
2023-04-16T23:52:14.749Z,98874.50
2023-04-16T23:55:07.587Z,98875.73
2023-04-16T23:57:59.501Z,98874.36
